ISO Group Logo
Defense and Aerospace
Supply Chain Partner


ISO Group supports National Stock Numbers (NSN) relating to 1660-99-629-6686 - 1660996500644 and spare parts logistics for Aircraft Air Conditioning, Heating, and Pressurizing Equipment. 1660-99-629-6686 - 1660996500644 Request Quotes. Buy Online.


1660-99-629-6686 - 1660996500644

  • 1660-99-629-6686 1660996296686, 1660-99-629-6686 - BRACKET,KNOB - 1660996296686
  • 1660-99-629-6689 1660996296689, 1660-99-629-6689 - MOUNTING BRACKET AS - 1660996296689
  • 1660-99-629-6690 1660996296690, 1660-99-629-6690 - BRACKET ASSEMBLY,MO - 1660996296690
  • 1660-99-629-6692 1660996296692, 1660-99-629-6692 - PIPE,AIR CONDITIONI - 1660996296692
  • 1660-99-629-6693 1660996296693, 1660-99-629-6693 - PIPE,AIR CONDITIONI - 1660996296693
  • 1660-99-629-6696 1660996296696, 1660-99-629-6696 - PIPE,AIR CONDITIONI - 1660996296696
  • 1660-99-629-6697 1660996296697, 1660-99-629-6697 - PIPE,AIR CONDITIONI - 1660996296697
  • 1660-99-629-6698 1660996296698, 1660-99-629-6698 - PIPE,AIR CONDITIONI - 1660996296698
  • 1660-99-629-6699 1660996296699, 1660-99-629-6699 - LOUVRE ASSEMBLY,STA - 1660996296699
  • 1660-99-629-6700 1660996296700, 1660-99-629-6700 - PIPE ASSEMBLY,HEATE - 1660996296700
  • 1660-99-629-6703 1660996296703, 1660-99-629-6703 - MANIFOLD ASSEMBLY - 1660996296703
  • 1660-99-629-6705 1660996296705, 1660-99-629-6705 - PIPE,ALUMINIUM ALLO - 1660996296705
  • 1660-99-629-6714 1660996296714, 1660-99-629-6714 - LOUVRE ASSEMBLY,POR - 1660996296714
  • 1660-99-629-8883 1660996298883, 1660-99-629-8883 - PISTON CHAMBER AND - 1660996298883
  • 1660-99-629-9868 1660996299868, 1660-99-629-9868 - VENTILATOR - 1660996299868
  • 1660-99-631-6541 1660996316541, 1660-99-631-6541 - HEAT EXCHANGER,AIR - 1660996316541
  • 1660-99-632-0040 1660996320040, 1660-99-632-0040 - CONNECTOR ASSEMBLY - 1660996320040
  • 1660-99-632-3322 1660996323322, 1660-99-632-3322 - HOUSING,BRUSH GEAR - 1660996323322
  • 1660-99-632-3323 1660996323323, 1660-99-632-3323 - HUB,GOVERNOR - 1660996323323
  • 1660-99-632-3538 1660996323538, 1660-99-632-3538 - FILTER ELEMENT,FLUI - 1660996323538
  • 1660-99-632-3540 1660996323540, 1660-99-632-3540 - STRAP,LANYARD - 1660996323540
  • 1660-99-634-1306 1660996341306, 1660-99-634-1306 - COLD AIR UNIT - 1660996341306
  • 1660-99-634-1308 1660996341308, 1660-99-634-1308 - COLD AIR UNIT - 1660996341308
  • 1660-99-634-1315 1660996341315, 1660-99-634-1315 - VALVE - 1660996341315
  • 1660-99-634-1316 1660996341316, 1660-99-634-1316 - HEAT EXCHANGER,AIR - 1660996341316
  • 1660-99-634-1656 1660996341656, 1660-99-634-1656 - COOLER ASSEMBLY - 1660996341656
  • 1660-99-634-1675 1660996341675, 1660-99-634-1675 - VALVE ASSEMBLY - 1660996341675
  • 1660-99-634-1676 1660996341676, 1660-99-634-1676 - SOLENOID - 1660996341676
  • 1660-99-634-1680 1660996341680, 1660-99-634-1680 - SELECTOR TEMPERATUR - 1660996341680
  • 1660-99-634-1682 1660996341682, 1660-99-634-1682 - VALVE ASSEMBLY - 1660996341682
  • 1660-99-634-3389 1660996343389, 1660-99-634-3389 - MAIN BODY AND WORM- - 1660996343389
  • 1660-99-634-3390 1660996343390, 1660-99-634-3390 - BODY AND DOWEL AND - 1660996343390
  • 1660-99-634-3391 1660996343391, 1660-99-634-3391 - BODY,ACTUATOR - 1660996343391
  • 1660-99-634-3400 1660996343400, 1660-99-634-3400 - CARRIER,WORM WHEEL - 1660996343400
  • 1660-99-634-3401 1660996343401, 1660-99-634-3401 - PLATE SUBASSEMBLY,M - 1660996343401
  • 1660-99-634-3404 1660996343404, 1660-99-634-3404 - CRANK,DRIVE - 1660996343404
  • 1660-99-634-3407 1660996343407, 1660-99-634-3407 - GUARD,CABLE - 1660996343407
  • 1660-99-634-3409 1660996343409, 1660-99-634-3409 - STOP,BLADE,MICROSWI - 1660996343409
  • 1660-99-634-3410 1660996343410, 1660-99-634-3410 - STOP,BLADE,MICROSWI - 1660996343410
  • 1660-99-634-3411 1660996343411, 1660-99-634-3411 - WORM SHAFT - 1660996343411
  • 1660-99-634-3413 1660996343413, 1660-99-634-3413 - CARRIER,GEAR - 1660996343413
  • 1660-99-634-3416 1660996343416, 1660-99-634-3416 - BLOCK,SLIDER - 1660996343416
  • 1660-99-634-3417 1660996343417, 1660-99-634-3417 - PLATE,TOP - 1660996343417
  • 1660-99-634-3418 1660996343418, 1660-99-634-3418 - CAM,CONTROL - 1660996343418
  • 1660-99-634-3433 1660996343433, 1660-99-634-3433 - MOUNTING PLATE AND - 1660996343433
  • 1660-99-634-3435 1660996343435, 1660-99-634-3435 - TUBE AND RING ASSEM - 1660996343435
  • 1660-99-634-3437 1660996343437, 1660-99-634-3437 - TUBE,BODY - 1660996343437
  • 1660-99-634-3440 1660996343440, 1660-99-634-3440 - POLE PIECE - 1660996343440
  • 1660-99-634-3441 1660996343441, 1660-99-634-3441 - PLATE,MOUNTING,MOTO - 1660996343441
  • 1660-99-634-3445 1660996343445, 1660-99-634-3445 - CONNECTOR - 1660996343445
  • 1660-99-634-3448 1660996343448, 1660-99-634-3448 - HOUSING,BEARING,TOP - 1660996343448
  • 1660-99-634-3450 1660996343450, 1660-99-634-3450 - STRIP,INSULATING - 1660996343450
  • 1660-99-634-6431 1660996346431, 1660-99-634-6431 - ADAPTOR,PLUG - 1660996346431
  • 1660-99-635-0901 1660996350901, 1660-99-635-0901 - BODY ASSEMBLY - 1660996350901
  • 1660-99-636-0574 1660996360574, 1660-99-636-0574 - PACK,PERSONAL SURVI - 1660996360574
  • 1660-99-636-0576 1660996360576, 1660-99-636-0576 - WATER CUSHION - 1660996360576
  • 1660-99-636-4639 1660996364639, 1660-99-636-4639 - VALVE HEAD - 1660996364639
  • 1660-99-636-9257 1660996369257, 1660-99-636-9257 - COVER ASSEMBLY - 1660996369257
  • 1660-99-636-9785 1660996369785, 1660-99-636-9785 - SOLENO1D AND VALVE - 1660996369785
  • 1660-99-636-9889 1660996369889, 1660-99-636-9889 - COVER,PULLEY - 1660996369889
  • 1660-99-636-9895 1660996369895, 1660-99-636-9895 - OUTLET FLARE - 1660996369895
  • 1660-99-636-9896 1660996369896, 1660-99-636-9896 - CABLE ASSEMBLY - 1660996369896
  • 1660-99-636-9897 1660996369897, 1660-99-636-9897 - BODY,VALVE - 1660996369897
  • 1660-99-636-9898 1660996369898, 1660-99-636-9898 - PLUG - 1660996369898
  • 1660-99-637-0066 1660996370066, 1660-99-637-0066 - VALVE NON RETURN - 1660996370066
  • 1660-99-637-0256 1660996370256, 1660-99-637-0256 - MIXER UNIT AND INSU - 1660996370256
  • 1660-99-637-0268 1660996370268, 1660-99-637-0268 - HEATER,AIRCRAFT - 1660996370268
  • 1660-99-637-0269 1660996370269, 1660-99-637-0269 - FAN,VANEAXIAL - 1660996370269
  • 1660-99-637-0417 1660996370417, 1660-99-637-0417 - SENSOR,THERMAL - 1660996370417
  • 1660-99-638-5858 1660996385858, 1660-99-638-5858 - DUCT,DISTRIBUTION - 1660996385858
  • 1660-99-640-1436 1660996401436, 1660-99-640-1436 - STOWAGE,PORTABLE OX - 1660996401436
  • 1660-99-640-1437 1660996401437, 1660-99-640-1437 - ECONOMISER,OXYGEN - 1660996401437
  • 1660-99-640-1446 1660996401446, 1660-99-640-1446 - VALVE,FILL AND VENT - 1660996401446
  • 1660-99-640-1447 1660996401447, 1660-99-640-1447 - VALVE,FILL AND VENT - 1660996401447
  • 1660-99-640-1448 1660996401448, 1660-99-640-1448 - PERSONAL EQUIPMENT - 1660996401448
  • 1660-99-640-1449 1660996401449, 1660-99-640-1449 - MASK,OXYGEN - 1660996401449
  • 1660-99-640-1450 1660996401450, 1660-99-640-1450 - MASK,OXYGEN - 1660996401450
  • 1660-99-640-1455 1660996401455, 1660-99-640-1455 - HOUSING,CABLE RELEA - 1660996401455
  • 1660-99-640-1463 1660996401463, 1660-99-640-1463 - HANDLE ASSEMBLY - 1660996401463
  • 1660-99-640-1464 1660996401464, 1660-99-640-1464 - PERSONAL EQUIPMENT - 1660996401464
  • 1660-99-640-1473 1660996401473, 1660-99-640-1473 - END CAP - 1660996401473
  • 1660-99-640-1490 1660996401490, 1660-99-640-1490 - PLATE,VALVE - 1660996401490
  • 1660-99-640-1495 1660996401495, 1660-99-640-1495 - HOSE ASSEMBLY,NONME - 1660996401495
  • 1660-99-640-1496 1660996401496, 1660-99-640-1496 - CONVERTER PACKAGE,L - 1660996401496
  • 1660-99-640-4894 1660996404894, 1660-99-640-4894 - HOUSING,BEARING - 1660996404894
  • 1660-99-640-4898 1660996404898, 1660-99-640-4898 - ACTUATOR BODY - 1660996404898
  • 1660-99-640-4901 1660996404901, 1660-99-640-4901 - DRIVE CRANK - 1660996404901
  • 1660-99-640-7130 1660996407130, 1660-99-640-7130 - BOOT,DUST AND MOIST - 1660996407130
  • 1660-99-640-7399 1660996407399, 1660-99-640-7399 - OXYGEN SYSTEM - 1660996407399
  • 1660-99-640-7552 1660996407552, 1660-99-640-7552 - MASK,OXYGEN - 1660996407552
  • 1660-99-640-7555 1660996407555, 1660-99-640-7555 - FACEPIECE - 1660996407555
  • 1660-99-640-8624 1660996408624, 1660-99-640-8624 - HEATER,AIRCRAFT - 1660996408624
  • 1660-99-640-9171 1660996409171, 1660-99-640-9171 - FILTER TEE ASSEMBLY - 1660996409171
  • 1660-99-641-0217 1660996410217, 1660-99-641-0217 - AIR INTAKE ASSEMBLY - 1660996410217
  • 1660-99-641-0218 1660996410218, 1660-99-641-0218 - PIPE,AIR CONDITIONI - 1660996410218
  • 1660-99-641-0223 1660996410223, 1660-99-641-0223 - PIPE,AIR CONDITIONI - 1660996410223
  • 1660-99-641-0225 1660996410225, 1660-99-641-0225 - PIPE,AIR CONDITIONI - 1660996410225
  • 1660-99-641-2522 1660996412522, 1660-99-641-2522 - MOUNTING ASSEMBLY - 1660996412522
  • 1660-99-641-2523 1660996412523, 1660-99-641-2523 - BRACKET - 1660996412523
  • 1660-99-641-2524 1660996412524, 1660-99-641-2524 - BLOCK - 1660996412524
  • 1660-99-641-2525 1660996412525, 1660-99-641-2525 - BRACKET ASSEMBLY - 1660996412525
  • 1660-99-641-5671 1660996415671, 1660-99-641-5671 - BRANCH PIPE ANTI-G - 1660996415671
  • 1660-99-641-5672 1660996415672, 1660-99-641-5672 - BRANCH PIPE,FLOOD-D - 1660996415672
  • 1660-99-641-5673 1660996415673, 1660-99-641-5673 - BRANCH PIPE,VENTURI - 1660996415673
  • 1660-99-641-5674 1660996415674, 1660-99-641-5674 - PIPE,COMPRESSOR OUT - 1660996415674
  • 1660-99-641-5675 1660996415675, 1660-99-641-5675 - PIPE,INLET COMPRESS - 1660996415675
  • 1660-99-641-5676 1660996415676, 1660-99-641-5676 - TURBINE INLET PIPE - 1660996415676
  • 1660-99-641-5677 1660996415677, 1660-99-641-5677 - BRANCH PIPE - 1660996415677
  • 1660-99-641-5678 1660996415678, 1660-99-641-5678 - TURBINE OUTLET PIPE - 1660996415678
  • 1660-99-641-5691 1660996415691, 1660-99-641-5691 - STRAINER ELEMENT,SE - 1660996415691
  • 1660-99-641-5694 1660996415694, 1660-99-641-5694 - OUTLET,DISCHARGE VA - 1660996415694
  • 1660-99-641-5695 1660996415695, 1660-99-641-5695 - BRANCH PIPE - 1660996415695
  • 1660-99-641-5697 1660996415697, 1660-99-641-5697 - FLEXIBLE JOINT ASSE - 1660996415697
  • 1660-99-641-5698 1660996415698, 1660-99-641-5698 - COUPLING,I>ERTIAL P - 1660996415698
  • 1660-99-641-5822 1660996415822, 1660-99-641-5822 - PIPE ASSEMBLY - 1660996415822
  • 1660-99-641-5823 1660996415823, 1660-99-641-5823 - PIPE,VENT DEM1ST CH - 1660996415823
  • 1660-99-641-5824 1660996415824, 1660-99-641-5824 - BRANCH PIPE - 1660996415824
  • 1660-99-641-5825 1660996415825, 1660-99-641-5825 - PIPE,ALUMINIUM ALLO - 1660996415825
  • 1660-99-641-5826 1660996415826, 1660-99-641-5826 - PIPE DEMIST SUPPLY - 1660996415826
  • 1660-99-641-5831 1660996415831, 1660-99-641-5831 - DEMIST PIPE,WINDSCR - 1660996415831
  • 1660-99-641-5832 1660996415832, 1660-99-641-5832 - DEMIST PIPE,WINDSCR - 1660996415832
  • 1660-99-641-5836 1660996415836, 1660-99-641-5836 - BRANCH PIPE CABIN I - 1660996415836
  • 1660-99-641-5838 1660996415838, 1660-99-641-5838 - PIPE,DISTRIBUTION,C - 1660996415838
  • 1660-99-641-5839 1660996415839, 1660-99-641-5839 - AIR DISTRIBUTION PI - 1660996415839
  • 1660-99-641-5840 1660996415840, 1660-99-641-5840 - AIR DISTRIBUTION PI - 1660996415840
  • 1660-99-641-5842 1660996415842, 1660-99-641-5842 - PIPE,CORROSION RESI - 1660996415842
  • 1660-99-641-5843 1660996415843, 1660-99-641-5843 - PIPE,CORROSION RESI - 1660996415843
  • 1660-99-641-5847 1660996415847, 1660-99-641-5847 - PIPE,CORROSION RESI - 1660996415847
  • 1660-99-641-5848 1660996415848, 1660-99-641-5848 - PIPE,CORROSION RESI - 1660996415848
  • 1660-99-641-5849 1660996415849, 1660-99-641-5849 - PIPE,CORROSION RESI - 1660996415849
  • 1660-99-641-5850 1660996415850, 1660-99-641-5850 - PIPE,CORROSION RESI - 1660996415850
  • 1660-99-641-5852 1660996415852, 1660-99-641-5852 - RAM AIR PIPE - 1660996415852
  • 1660-99-641-5859 1660996415859, 1660-99-641-5859 - RAM AIR OUTLET VALV - 1660996415859
  • 1660-99-641-5863 1660996415863, 1660-99-641-5863 - PIPE,CORROSION RESI - 1660996415863
  • 1660-99-641-5864 1660996415864, 1660-99-641-5864 - PIPE,CORROSION RESI - 1660996415864
  • 1660-99-641-5865 1660996415865, 1660-99-641-5865 - PIPE,CORROSION RESI - 1660996415865
  • 1660-99-641-5866 1660996415866, 1660-99-641-5866 - PIPE,CORROSION RESI - 1660996415866
  • 1660-99-641-5867 1660996415867, 1660-99-641-5867 - PIPE,CORROSION RESI - 1660996415867
  • 1660-99-641-5873 1660996415873, 1660-99-641-5873 - PIPE,CORROSION RESI - 1660996415873
  • 1660-99-641-5874 1660996415874, 1660-99-641-5874 - PIPE,CORROSION RESI - 1660996415874
  • 1660-99-641-5969 1660996415969, 1660-99-641-5969 - SPARES ASSEMBLY - 1660996415969
  • 1660-99-641-6106 1660996416106, 1660-99-641-6106 - FAN ASSEMBLY,NAVIGA - 1660996416106
  • 1660-99-641-6206 1660996416206, 1660-99-641-6206 - CAMERA FAN ASSEMBLY - 1660996416206
  • 1660-99-641-6275 1660996416275, 1660-99-641-6275 - PIPE,WINDSCREEN SPR - 1660996416275
  • 1660-99-641-6276 1660996416276, 1660-99-641-6276 - PIPE,QUARTER LIGHT - 1660996416276
  • 1660-99-641-6277 1660996416277, 1660-99-641-6277 - PIPE,QUARTER LIGHT - 1660996416277
  • 1660-99-641-6278 1660996416278, 1660-99-641-6278 - PIPE,AIR DISTRIBUTI - 1660996416278
  • 1660-99-641-6393 1660996416393, 1660-99-641-6393 - FILTER,RAM AIR INLE - 1660996416393
  • 1660-99-641-6394 1660996416394, 1660-99-641-6394 - CLAMP BLOCK - 1660996416394
  • 1660-99-641-6395 1660996416395, 1660-99-641-6395 - INLET PIPE,WATER EX - 1660996416395
  • 1660-99-641-6492 1660996416492, 1660-99-641-6492 - RESTRICTOR,RADAR PR - 1660996416492
  • 1660-99-641-6595 1660996416595, 1660-99-641-6595 - BRANCH PIPE - 1660996416595
  • 1660-99-641-6812 1660996416812, 1660-99-641-6812 - PIPE,CORROSION RESI - 1660996416812
  • 1660-99-641-6813 1660996416813, 1660-99-641-6813 - PIPE,CORROSION RESI - 1660996416813
  • 1660-99-641-6838 1660996416838, 1660-99-641-6838 - BRANCH PIPE - 1660996416838
  • 1660-99-641-6843 1660996416843, 1660-99-641-6843 - PIPE,CORROSION RESI - 1660996416843
  • 1660-99-641-6844 1660996416844, 1660-99-641-6844 - SUMP SLEEVE - 1660996416844
  • 1660-99-641-6847 1660996416847, 1660-99-641-6847 - PIPE,CORROSION RESI - 1660996416847
  • 1660-99-641-6848 1660996416848, 1660-99-641-6848 - SLEEVE,OUTER,SPECIA - 1660996416848
  • 1660-99-641-6853 1660996416853, 1660-99-641-6853 - ADAPTOR,CABIN AIR - 1660996416853
  • 1660-99-641-7491 1660996417491, 1660-99-641-7491 - CHAMBER ASSEMBLY - 1660996417491
  • 1660-99-641-7536 1660996417536, 1660-99-641-7536 - HOLDER,FILTER - 1660996417536
  • 1660-99-641-7560 1660996417560, 1660-99-641-7560 - MANIFOLD ASSEMBLY - 1660996417560
  • 1660-99-641-9264 1660996419264, 1660-99-641-9264 - FILTER - 1660996419264
  • 1660-99-642-1037 1660996421037, 1660-99-642-1037 - NIPPLE - 1660996421037
  • 1660-99-642-1592 1660996421592, 1660-99-642-1592 - PIPE,ELBOW - 1660996421592
  • 1660-99-642-1593 1660996421593, 1660-99-642-1593 - TEE PIECE - 1660996421593
  • 1660-99-642-1594 1660996421594, 1660-99-642-1594 - COUPLING - 1660996421594
  • 1660-99-642-1595 1660996421595, 1660-99-642-1595 - NIPPLE,HEXAGON - 1660996421595
  • 1660-99-642-1596 1660996421596, 1660-99-642-1596 - TUBING - 1660996421596
  • 1660-99-642-5331 1660996425331, 1660-99-642-5331 - THREE WAY PIECE,OXY - 1660996425331
  • 1660-99-642-6080 1660996426080, 1660-99-642-6080 - INLET CONNECTION - 1660996426080
  • 1660-99-642-6082 1660996426082, 1660-99-642-6082 - DESICCANT CARTRIDGE - 1660996426082
  • 1660-99-642-6083 1660996426083, 1660-99-642-6083 - TUBE ASSEMBLY - 1660996426083
  • 1660-99-642-6084 1660996426084, 1660-99-642-6084 - CAP - 1660996426084
  • 1660-99-642-6085 1660996426085, 1660-99-642-6085 - FILTER SUPPORT - 1660996426085
  • 1660-99-642-6087 1660996426087, 1660-99-642-6087 - CANISTER ASSEMBLY - 1660996426087
  • 1660-99-642-6088 1660996426088, 1660-99-642-6088 - CANISTER - 1660996426088
  • 1660-99-642-6091 1660996426091, 1660-99-642-6091 - RE-CHARGING PACK - 1660996426091
  • 1660-99-642-7079 1660996427079, 1660-99-642-7079 - SUPPORT ASSEMBLY - 1660996427079
  • 1660-99-642-8065 1660996428065, 1660-99-642-8065 - REGULATOR-DIAL CALI - 1660996428065
  • 1660-99-642-8066 1660996428066, 1660-99-642-8066 - REGULATOR-DIAL CALI - 1660996428066
  • 1660-99-642-8082 1660996428082, 1660-99-642-8082 - SENSOR,TEMPERATURE - 1660996428082
  • 1660-99-642-8085 1660996428085, 1660-99-642-8085 - PLUNGER,SENSOR - 1660996428085
  • 1660-99-642-8086 1660996428086, 1660-99-642-8086 - PLATED,DIAPHRAGM - 1660996428086
  • 1660-99-642-8087 1660996428087, 1660-99-642-8087 - VALVE,DIAPHRAGM - 1660996428087
  • 1660-99-642-8089 1660996428089, 1660-99-642-8089 - PLUG,DIAPHRAGM VALV - 1660996428089
  • 1660-99-642-8094 1660996428094, 1660-99-642-8094 - VALVE,SENSOR BLEED - 1660996428094
  • 1660-99-642-8854 1660996428854, 1660-99-642-8854 - END COVER,INLET - 1660996428854
  • 1660-99-645-0746 1660996450746, 1660-99-645-0746 - COVER,INSULATING,RE - 1660996450746
  • 1660-99-645-0886 1660996450886, 1660-99-645-0886 - UNIT,PROPORTIONING - 1660996450886
  • 1660-99-645-0887 1660996450887, 1660-99-645-0887 - VALVE,AIR BLEED - 1660996450887
  • 1660-99-645-0890 1660996450890, 1660-99-645-0890 - PANEL,POROUS,DE-ICI - 1660996450890
  • 1660-99-645-1070 1660996451070, 1660-99-645-1070 - FILTER,FLUID,PRESSU - 1660996451070
  • 1660-99-645-1282 1660996451282, 1660-99-645-1282 - GRILLE ASSEMBLY - 1660996451282
  • 1660-99-645-2621 1660996452621, 1660-99-645-2621 - MAN PORT1ON,LOW PRE - 1660996452621
  • 1660-99-645-2622 1660996452622, 1660-99-645-2622 - ROLLER,MAN PORT1ON - 1660996452622
  • 1660-99-645-2623 1660996452623, 1660-99-645-2623 - THUMB BUTTON,OPERAT - 1660996452623
  • 1660-99-645-2624 1660996452624, 1660-99-645-2624 - OPERAT1NG HANDLE AS - 1660996452624
  • 1660-99-645-2625 1660996452625, 1660-99-645-2625 - OUTER SLEEVE,STOWAG - 1660996452625
  • 1660-99-645-2626 1660996452626, 1660-99-645-2626 - STOWAGE BLOCK,OXYGE - 1660996452626
  • 1660-99-645-2627 1660996452627, 1660-99-645-2627 - SOCKET,QU1CK RELEAS - 1660996452627
  • 1660-99-645-2630 1660996452630, 1660-99-645-2630 - VALVE SEAT 1NSERT S - 1660996452630
  • 1660-99-645-2631 1660996452631, 1660-99-645-2631 - SPINDLE,VALVE - 1660996452631
  • 1660-99-645-2632 1660996452632, 1660-99-645-2632 - VALVE,OXYGEN OUTLET - 1660996452632
  • 1660-99-645-2633 1660996452633, 1660-99-645-2633 - OXYGEN CONNECTOR,MA - 1660996452633
  • 1660-99-645-2634 1660996452634, 1660-99-645-2634 - TUBE AND END F1TT1N - 1660996452634
  • 1660-99-645-2635 1660996452635, 1660-99-645-2635 - CAP,TELE-M1C,MAN PO - 1660996452635
  • 1660-99-645-2638 1660996452638, 1660-99-645-2638 - MAN PORT1ON ASSEMBL - 1660996452638
  • 1660-99-645-2777 1660996452777, 1660-99-645-2777 - COALESCER ASSEMBLY - 1660996452777
  • 1660-99-645-2778 1660996452778, 1660-99-645-2778 - COALESCER ASSEMBLY - 1660996452778
  • 1660-99-645-2779 1660996452779, 1660-99-645-2779 - COALESCER ASSEMBLY - 1660996452779
  • 1660-99-645-2781 1660996452781, 1660-99-645-2781 - GAITER,LAGGING,WATE - 1660996452781
  • 1660-99-645-4550 1660996454550, 1660-99-645-4550 - BY-PASS VALVE ASSEM - 1660996454550
  • 1660-99-645-4551 1660996454551, 1660-99-645-4551 - SHAFT,VALVE - 1660996454551
  • 1660-99-645-4552 1660996454552, 1660-99-645-4552 - STOP,VALVE - 1660996454552
  • 1660-99-645-5758 1660996455758, 1660-99-645-5758 - CUSHION SEAT,AIRCRA - 1660996455758
  • 1660-99-645-5759 1660996455759, 1660-99-645-5759 - CUSH1ON 1NTER1OR AS - 1660996455759
  • 1660-99-645-5761 1660996455761, 1660-99-645-5761 - LOWER1NG L1NE ASSEM - 1660996455761
  • 1660-99-645-5766 1660996455766, 1660-99-645-5766 - MANUAL OPERAT1NG HA - 1660996455766
  • 1660-99-645-5768 1660996455768, 1660-99-645-5768 - P1STON,AUTOMAT1C D1 - 1660996455768
  • 1660-99-645-5770 1660996455770, 1660-99-645-5770 - SHELL,GLASSF1BRE,PE - 1660996455770
  • 1660-99-645-5771 1660996455771, 1660-99-645-5771 - PROTECTIVE STRIP,SU - 1660996455771
  • 1660-99-645-5772 1660996455772, 1660-99-645-5772 - PROTECT1VE STR1P,ST - 1660996455772
  • 1660-99-645-5773 1660996455773, 1660-99-645-5773 - PROTECT1VE STR1P,PO - 1660996455773
  • 1660-99-645-5774 1660996455774, 1660-99-645-5774 - PROTECT1VE STR1P,PO - 1660996455774
  • 1660-99-645-5775 1660996455775, 1660-99-645-5775 - PROTECT1VE STR1P,PO - 1660996455775
  • 1660-99-645-5777 1660996455777, 1660-99-645-5777 - ZIP SECURING STRIP, - 1660996455777
  • 1660-99-645-5778 1660996455778, 1660-99-645-5778 - FASTENER,VELCRO TOU - 1660996455778
  • 1660-99-645-5844 1660996455844, 1660-99-645-5844 - SEPARATOR,WATER,AIR - 1660996455844
  • 1660-99-645-5845 1660996455845, 1660-99-645-5845 - SEAT,VALVE - 1660996455845
  • 1660-99-645-5848 1660996455848, 1660-99-645-5848 - BUSH,DASHPOT - 1660996455848
  • 1660-99-645-5852 1660996455852, 1660-99-645-5852 - COALESCER - 1660996455852
  • 1660-99-645-5853 1660996455853, 1660-99-645-5853 - SUPPORT,COALESCER - 1660996455853
  • 1660-99-645-6923 1660996456923, 1660-99-645-6923 - OUTLET CONNECTION - 1660996456923
  • 1660-99-645-6927 1660996456927, 1660-99-645-6927 - VALVE - 1660996456927
  • 1660-99-645-8091 1660996458091, 1660-99-645-8091 - VALVE,ANTI-G - 1660996458091
  • 1660-99-645-8092 1660996458092, 1660-99-645-8092 - STRAINER ELEMENT,SE - 1660996458092
  • 1660-99-645-8093 1660996458093, 1660-99-645-8093 - OUTLET P1PE ASSEMBL - 1660996458093
  • 1660-99-645-8094 1660996458094, 1660-99-645-8094 - FILTER ELEMENT,FLUI - 1660996458094
  • 1660-99-645-8095 1660996458095, 1660-99-645-8095 - PLATE,NON-RETURN VA - 1660996458095
  • 1660-99-645-8096 1660996458096, 1660-99-645-8096 - CAP - 1660996458096
  • 1660-99-645-8097 1660996458097, 1660-99-645-8097 - SUPPORT PLATE - 1660996458097
  • 1660-99-645-8098 1660996458098, 1660-99-645-8098 - BODY,VALVE - 1660996458098
  • 1660-99-645-8099 1660996458099, 1660-99-645-8099 - PISTON,RELIEF VALVE - 1660996458099
  • 1660-99-645-8100 1660996458100, 1660-99-645-8100 - CAP - 1660996458100
  • 1660-99-645-8101 1660996458101, 1660-99-645-8101 - TOP STOP - 1660996458101
  • 1660-99-645-8102 1660996458102, 1660-99-645-8102 - VALVE ASSEMBLY - 1660996458102
  • 1660-99-645-8103 1660996458103, 1660-99-645-8103 - FILTER ELEMENT,FLUI - 1660996458103
  • 1660-99-645-8104 1660996458104, 1660-99-645-8104 - FILTER ELEMENT,FLUI - 1660996458104
  • 1660-99-645-8105 1660996458105, 1660-99-645-8105 - FILTER,FLUID,PRESSU - 1660996458105
  • 1660-99-645-8106 1660996458106, 1660-99-645-8106 - STOP,LOWER - 1660996458106
  • 1660-99-645-8107 1660996458107, 1660-99-645-8107 - FILTER ELEMENT,FLUI - 1660996458107
  • 1660-99-645-8108 1660996458108, 1660-99-645-8108 - PISTON,LOWER - 1660996458108
  • 1660-99-645-8837 1660996458837, 1660-99-645-8837 - DIFFUSER CONE,INNER - 1660996458837
  • 1660-99-645-9391 1660996459391, 1660-99-645-9391 - FLAP,VALVE - 1660996459391
  • 1660-99-646-2383 1660996462383, 1660-99-646-2383 - PIPE,ALUMINIUM ALLO - 1660996462383
  • 1660-99-647-0704 1660996470704, 1660-99-647-0704 - PROTECTIVE SHEATH P - 1660996470704
  • 1660-99-647-0705 1660996470705, 1660-99-647-0705 - PROTECTIVE SHEATH P - 1660996470705
  • 1660-99-647-0709 1660996470709, 1660-99-647-0709 - MAIN ASSEMBLY - 1660996470709
  • 1660-99-647-0710 1660996470710, 1660-99-647-0710 - OXYGEN HOSE ASSEMBL - 1660996470710
  • 1660-99-647-0711 1660996470711, 1660-99-647-0711 - AIRCRAFT PORTION,PI - 1660996470711
  • 1660-99-647-0712 1660996470712, 1660-99-647-0712 - COMBINED SERVICES U - 1660996470712
  • 1660-99-647-0713 1660996470713, 1660-99-647-0713 - TOGGLE CUFF - 1660996470713
  • 1660-99-647-0714 1660996470714, 1660-99-647-0714 - MAIN ASSEMBLY - 1660996470714
  • 1660-99-647-0731 1660996470731, 1660-99-647-0731 - OXYGEN HOSE ASSEMBL - 1660996470731
  • 1660-99-647-0732 1660996470732, 1660-99-647-0732 - PIPE ASSEMBLY - 1660996470732
  • 1660-99-647-0738 1660996470738, 1660-99-647-0738 - CYL1NDER AND RELEAS - 1660996470738
  • 1660-99-647-1126 1660996471126, 1660-99-647-1126 - CONNECTOR BLOCK ASS - 1660996471126
  • 1660-99-647-1127 1660996471127, 1660-99-647-1127 - BODY,SPECIAL - 1660996471127
  • 1660-99-647-1128 1660996471128, 1660-99-647-1128 - PLATE,LOCKING - 1660996471128
  • 1660-99-647-1129 1660996471129, 1660-99-647-1129 - PLATE,MOUNTING - 1660996471129
  • 1660-99-647-1136 1660996471136, 1660-99-647-1136 - PACKING PIECE - 1660996471136
  • 1660-99-647-1138 1660996471138, 1660-99-647-1138 - BLOCK ASSEMBLY,CONN - 1660996471138
  • 1660-99-647-2297 1660996472297, 1660-99-647-2297 - HOUSING,BEARING - 1660996472297
  • 1660-99-647-2324 1660996472324, 1660-99-647-2324 - DISC,BRAKE - 1660996472324
  • 1660-99-647-2325 1660996472325, 1660-99-647-2325 - BRAKE SHOE ASSEMBLY - 1660996472325
  • 1660-99-647-2333 1660996472333, 1660-99-647-2333 - ENDPLATE ASSEMBLY - 1660996472333
  • 1660-99-647-3864 1660996473864, 1660-99-647-3864 - SELECTOR VALVE - 1660996473864
  • 1660-99-647-4448 1660996474448, 1660-99-647-4448 - DUST COVER ASSEMBLY - 1660996474448
  • 1660-99-647-4862 1660996474862, 1660-99-647-4862 - TOP PLATE SUB ASSEM - 1660996474862
  • 1660-99-647-4864 1660996474864, 1660-99-647-4864 - PRESSURE REGULATOR - 1660996474864
  • 1660-99-647-4865 1660996474865, 1660-99-647-4865 - HOUSING SUB ASSEMBL - 1660996474865
  • 1660-99-647-4866 1660996474866, 1660-99-647-4866 - DIAPHRAGM,VALVE,SPE - 1660996474866
  • 1660-99-647-4867 1660996474867, 1660-99-647-4867 - GUIDE - 1660996474867
  • 1660-99-647-4868 1660996474868, 1660-99-647-4868 - RETAINER - 1660996474868
  • 1660-99-647-4869 1660996474869, 1660-99-647-4869 - SEAT - 1660996474869
  • 1660-99-647-4871 1660996474871, 1660-99-647-4871 - POPPET - 1660996474871
  • 1660-99-647-4873 1660996474873, 1660-99-647-4873 - STRAINER ELEMENT,SE - 1660996474873
  • 1660-99-647-4874 1660996474874, 1660-99-647-4874 - INSERT - 1660996474874
  • 1660-99-647-4875 1660996474875, 1660-99-647-4875 - P1STON - 1660996474875
  • 1660-99-647-4878 1660996474878, 1660-99-647-4878 - HOUS1NG - 1660996474878
  • 1660-99-647-4879 1660996474879, 1660-99-647-4879 - TOGGLE - 1660996474879
  • 1660-99-647-4880 1660996474880, 1660-99-647-4880 - GU1DE - 1660996474880
  • 1660-99-647-4882 1660996474882, 1660-99-647-4882 - SHAFT,SHOULDERED - 1660996474882
  • 1660-99-647-4883 1660996474883, 1660-99-647-4883 - SEAT AND F1LTER ASS - 1660996474883
  • 1660-99-647-4884 1660996474884, 1660-99-647-4884 - FILTER,FLUID,PRESSU - 1660996474884
  • 1660-99-647-4886 1660996474886, 1660-99-647-4886 - SEAT,VALVE - 1660996474886
  • 1660-99-647-4887 1660996474887, 1660-99-647-4887 - BOBB1N ASSEMBLY - 1660996474887
  • 1660-99-647-4889 1660996474889, 1660-99-647-4889 - REED SWITCH AND BOD - 1660996474889
  • 1660-99-647-4890 1660996474890, 1660-99-647-4890 - REED SW1TCH ASSEMBL - 1660996474890
  • 1660-99-647-4892 1660996474892, 1660-99-647-4892 - BLEED ADJUSTER - 1660996474892
  • 1660-99-647-4893 1660996474893, 1660-99-647-4893 - BODY,SUBASSEMBLY - 1660996474893
  • 1660-99-647-4895 1660996474895, 1660-99-647-4895 - HOUS1NG ASSEMBLY - 1660996474895
  • 1660-99-647-7372 1660996477372, 1660-99-647-7372 - FILTER SEAL - 1660996477372
  • 1660-99-647-7373 1660996477373, 1660-99-647-7373 - FRICTION SPRING - 1660996477373
  • 1660-99-647-7914 1660996477914, 1660-99-647-7914 - ELECTRICAL ASSEMBLY - 1660996477914
  • 1660-99-647-8804 1660996478804, 1660-99-647-8804 - P1PE ASSEMBLY - 1660996478804
  • 1660-99-647-8809 1660996478809, 1660-99-647-8809 - DUCT ASSEMBLY - 1660996478809
  • 1660-99-647-8836 1660996478836, 1660-99-647-8836 - P1PE ASSEMBLY,CAB1N - 1660996478836
  • 1660-99-647-8841 1660996478841, 1660-99-647-8841 - PIPE ASSEMBLY - 1660996478841
  • 1660-99-647-8847 1660996478847, 1660-99-647-8847 - PIPE ASSEMBLY,BRANC - 1660996478847
  • 1660-99-647-8849 1660996478849, 1660-99-647-8849 - PIPE ASSEMBLY - 1660996478849
  • 1660-99-647-8857 1660996478857, 1660-99-647-8857 - PIPE,CONNECT ASSEMB - 1660996478857
  • 1660-99-647-8859 1660996478859, 1660-99-647-8859 - PIPE ASSEMBLY - 1660996478859
  • 1660-99-647-8862 1660996478862, 1660-99-647-8862 - STANDBY TEMPERATURE - 1660996478862
  • 1660-99-647-8863 1660996478863, 1660-99-647-8863 - CABIN INLET SENSOR - 1660996478863
  • 1660-99-647-8864 1660996478864, 1660-99-647-8864 - SKIN SENSING ELEMEN - 1660996478864
  • 1660-99-647-8866 1660996478866, 1660-99-647-8866 - BRACKET ASSEMBLY - 1660996478866
  • 1660-99-647-8867 1660996478867, 1660-99-647-8867 - BRACKET ASSEMBLY - 1660996478867
  • 1660-99-647-8869 1660996478869, 1660-99-647-8869 - CABIN OUTLET SENSOR - 1660996478869
  • 1660-99-647-8870 1660996478870, 1660-99-647-8870 - PIPE,GROUND COOLING - 1660996478870
  • 1660-99-647-8872 1660996478872, 1660-99-647-8872 - FAN HOUSING - 1660996478872
  • 1660-99-647-8874 1660996478874, 1660-99-647-8874 - PIPE ASSEMBLY - 1660996478874
  • 1660-99-647-8877 1660996478877, 1660-99-647-8877 - PIPE ASSEMBLY - 1660996478877
  • 1660-99-647-8879 1660996478879, 1660-99-647-8879 - HOSE ASSEMBLY - 1660996478879
  • 1660-99-647-8881 1660996478881, 1660-99-647-8881 - HOSE,FLANGED - 1660996478881
  • 1660-99-647-8882 1660996478882, 1660-99-647-8882 - P1PE SUB ASSEMBLY - 1660996478882
  • 1660-99-647-8927 1660996478927, 1660-99-647-8927 - SURFACE TEMPERATURE - 1660996478927
  • 1660-99-647-8930 1660996478930, 1660-99-647-8930 - BREAK CONNECT - 1660996478930
  • 1660-99-647-8932 1660996478932, 1660-99-647-8932 - P1PE ASSEMBLY,LAGGE - 1660996478932
  • 1660-99-647-8933 1660996478933, 1660-99-647-8933 - PIPE ASSEMBLY - 1660996478933
  • 1660-99-647-8934 1660996478934, 1660-99-647-8934 - PIPE ASSEMBLY - 1660996478934
  • 1660-99-647-8935 1660996478935, 1660-99-647-8935 - RESTRICTOR,ANTI-MIS - 1660996478935
  • 1660-99-647-8975 1660996478975, 1660-99-647-8975 - JOINT OUTER SLEEVE - 1660996478975
  • 1660-99-647-9301 1660996479301, 1660-99-647-9301 - SENSOR AND CONTROLL - 1660996479301
  • 1660-99-647-9303 1660996479303, 1660-99-647-9303 - CIRCUIT CARD ASSEMB - 1660996479303
  • 1660-99-647-9361 1660996479361, 1660-99-647-9361 - VALVE,SAFETY AND IN - 1660996479361
  • 1660-99-647-9362 1660996479362, 1660-99-647-9362 - COVER,VALVE - 1660996479362
  • 1660-99-647-9365 1660996479365, 1660-99-647-9365 - BODY,SERVO - 1660996479365
  • 1660-99-647-9369 1660996479369, 1660-99-647-9369 - RING,CLAMP - 1660996479369
  • 1660-99-647-9370 1660996479370, 1660-99-647-9370 - DIAPHRAGM,VALVE,SPE - 1660996479370
  • 1660-99-647-9371 1660996479371, 1660-99-647-9371 - PISTON ASSEMBLY - 1660996479371
  • 1660-99-647-9372 1660996479372, 1660-99-647-9372 - RING,B1CKING - 1660996479372
  • 1660-99-647-9373 1660996479373, 1660-99-647-9373 - HOUSING - 1660996479373
  • 1660-99-647-9374 1660996479374, 1660-99-647-9374 - DISK,VALVE - 1660996479374
  • 1660-99-647-9375 1660996479375, 1660-99-647-9375 - GUIDE - 1660996479375
  • 1660-99-647-9378 1660996479378, 1660-99-647-9378 - GUARD - 1660996479378
  • 1660-99-647-9379 1660996479379, 1660-99-647-9379 - BODY,VALVE - 1660996479379
  • 1660-99-647-9450 1660996479450, 1660-99-647-9450 - VALVE,PRESSURE REDU - 1660996479450
  • 1660-99-647-9455 1660996479455, 1660-99-647-9455 - ADJUSTER,SPRING - 1660996479455
  • 1660-99-647-9457 1660996479457, 1660-99-647-9457 - FILTER ELEMENT,FLUI - 1660996479457
  • 1660-99-647-9458 1660996479458, 1660-99-647-9458 - BLOCK,MOUNTING,DATU - 1660996479458
  • 1660-99-647-9844 1660996479844, 1660-99-647-9844 - FILTER - 1660996479844
  • 1660-99-648-0534 1660996480534, 1660-99-648-0534 - PRESSURE BOX SUBASS - 1660996480534
  • 1660-99-648-0535 1660996480535, 1660-99-648-0535 - BONDED ASSEMBLY - 1660996480535
  • 1660-99-648-0546 1660996480546, 1660-99-648-0546 - COVER ASSEMBLY - 1660996480546
  • 1660-99-648-2507 1660996482507, 1660-99-648-2507 - INSULATION JACKET - 1660996482507
  • 1660-99-648-2508 1660996482508, 1660-99-648-2508 - INSULATION JACKET - 1660996482508
  • 1660-99-648-3662 1660996483662, 1660-99-648-3662 - SEAL - 1660996483662
  • 1660-99-648-3858 1660996483858, 1660-99-648-3858 - SUPPORT - 1660996483858
  • 1660-99-648-3859 1660996483859, 1660-99-648-3859 - SUPPORT - 1660996483859
  • 1660-99-648-3860 1660996483860, 1660-99-648-3860 - CAP - 1660996483860
  • 1660-99-648-3861 1660996483861, 1660-99-648-3861 - PLATE - 1660996483861
  • 1660-99-648-3863 1660996483863, 1660-99-648-3863 - INSERT,FILLER HEAD - 1660996483863
  • 1660-99-648-3864 1660996483864, 1660-99-648-3864 - FILLER HEAD - 1660996483864
  • 1660-99-648-3865 1660996483865, 1660-99-648-3865 - SLEEVE,PLUNGER - 1660996483865
  • 1660-99-648-3866 1660996483866, 1660-99-648-3866 - ADAPTOR - 1660996483866
  • 1660-99-648-3867 1660996483867, 1660-99-648-3867 - SCREW - 1660996483867
  • 1660-99-648-3868 1660996483868, 1660-99-648-3868 - SHAFT,SHOULDERED - 1660996483868
  • 1660-99-648-3869 1660996483869, 1660-99-648-3869 - SCREW - 1660996483869
  • 1660-99-648-3870 1660996483870, 1660-99-648-3870 - SCREW - 1660996483870
  • 1660-99-648-3871 1660996483871, 1660-99-648-3871 - BELLOWS ASSEMBLY - 1660996483871
  • 1660-99-648-3872 1660996483872, 1660-99-648-3872 - VALVE - 1660996483872
  • 1660-99-648-3875 1660996483875, 1660-99-648-3875 - HEAD,VALVE CHECK - 1660996483875
  • 1660-99-648-3876 1660996483876, 1660-99-648-3876 - HOUSING - 1660996483876
  • 1660-99-648-3877 1660996483877, 1660-99-648-3877 - CAP,THREADED - 1660996483877
  • 1660-99-648-3878 1660996483878, 1660-99-648-3878 - CAP - 1660996483878
  • 1660-99-648-3879 1660996483879, 1660-99-648-3879 - MOUNTING SUBASSEMBL - 1660996483879
  • 1660-99-648-3880 1660996483880, 1660-99-648-3880 - FIXTURE,MOUNTING - 1660996483880
  • 1660-99-648-3881 1660996483881, 1660-99-648-3881 - LINING,SADDLE - 1660996483881
  • 1660-99-648-3883 1660996483883, 1660-99-648-3883 - CONTAINER ASSEMBLY, - 1660996483883
  • 1660-99-648-3884 1660996483884, 1660-99-648-3884 - BRACKET,C?NNECTOR - 1660996483884
  • 1660-99-648-3885 1660996483885, 1660-99-648-3885 - CONTAINER,LIQUID OX - 1660996483885
  • 1660-99-648-3886 1660996483886, 1660-99-648-3886 - TUBE - 1660996483886
  • 1660-99-648-3887 1660996483887, 1660-99-648-3887 - PLATE,MOUNTING - 1660996483887
  • 1660-99-648-4406 1660996484406, 1660-99-648-4406 - HOUSING - 1660996484406
  • 1660-99-648-4425 1660996484425, 1660-99-648-4425 - BELLOWS,PRESSURE - 1660996484425
  • 1660-99-648-4426 1660996484426, 1660-99-648-4426 - CAPSULE,DIFFERENTIA - 1660996484426
  • 1660-99-648-4668 1660996484668, 1660-99-648-4668 - LEAD,ELECTRICAL - 1660996484668
  • 1660-99-648-4669 1660996484669, 1660-99-648-4669 - LEAD,ELECTRICAL - 1660996484669
  • 1660-99-648-4670 1660996484670, 1660-99-648-4670 - LEAD,ELECTRICAL - 1660996484670
  • 1660-99-648-4671 1660996484671, 1660-99-648-4671 - LEAD,ELECTRICAL - 1660996484671
  • 1660-99-648-4672 1660996484672, 1660-99-648-4672 - LEAD,ELECTRICAL - 1660996484672
  • 1660-99-648-6211 1660996486211, 1660-99-648-6211 - SURVIVAL AIDS CONTA - 1660996486211
  • 1660-99-648-6742 1660996486742, 1660-99-648-6742 - CUSHION,SEAT,AIRCRA - 1660996486742
  • 1660-99-648-6743 1660996486743, 1660-99-648-6743 - CUSHION,SEAT,AIRCRA - 1660996486743
  • 1660-99-648-6744 1660996486744, 1660-99-648-6744 - LOWERING LINE TO SU - 1660996486744
  • 1660-99-648-8299 1660996488299, 1660-99-648-8299 - SPINDLE,VALVE - 1660996488299
  • 1660-99-648-8300 1660996488300, 1660-99-648-8300 - BODY,VALVE - 1660996488300
  • 1660-99-648-8709 1660996488709, 1660-99-648-8709 - MUFF - 1660996488709
  • 1660-99-650-0105 1660996500105, 1660-99-650-0105 - CONTROL BOX,ELECTRO - 1660996500105
  • 1660-99-650-0106 1660996500106, 1660-99-650-0106 - CONTROL BOX,ELECTRO - 1660996500106
  • 1660-99-650-0107 1660996500107, 1660-99-650-0107 - CONTROL BOX,ELECTRO - 1660996500107
  • 1660-99-650-0108 1660996500108, 1660-99-650-0108 - BRACKET ASSEMBLY - 1660996500108
  • 1660-99-650-0110 1660996500110, 1660-99-650-0110 - DUCT TEMPERATURE SE - 1660996500110
  • 1660-99-650-0111 1660996500111, 1660-99-650-0111 - CONTROL BOX,ELECTRI - 1660996500111
  • 1660-99-650-0280 1660996500280, 1660-99-650-0280 - PRESSURE REDUC1NG V - 1660996500280
  • 1660-99-650-0284 1660996500284, 1660-99-650-0284 - CABIN PRESSURE CONT - 1660996500284
  • 1660-99-650-0285 1660996500285, 1660-99-650-0285 - BEAM - 1660996500285
  • 1660-99-650-0559 1660996500559, 1660-99-650-0559 - MUFF HALF - 1660996500559
  • 1660-99-650-0560 1660996500560, 1660-99-650-0560 - MUFF HALF - 1660996500560
  • 1660-99-650-0567 1660996500567, 1660-99-650-0567 - MUFF HALF - 1660996500567
  • 1660-99-650-0568 1660996500568, 1660-99-650-0568 - MUFF HALF - 1660996500568
  • 1660-99-650-0569 1660996500569, 1660-99-650-0569 - MUFF HALF - 1660996500569
  • 1660-99-650-0570 1660996500570, 1660-99-650-0570 - MUFF HALF - 1660996500570
  • 1660-99-650-0571 1660996500571, 1660-99-650-0571 - INSULATION,MUFF HAL - 1660996500571
  • 1660-99-650-0573 1660996500573, 1660-99-650-0573 - MUFF HALF - 1660996500573
  • 1660-99-650-0574 1660996500574, 1660-99-650-0574 - MUFF HALF - 1660996500574
  • 1660-99-650-0575 1660996500575, 1660-99-650-0575 - MUFF HALF - 1660996500575
  • 1660-99-650-0577 1660996500577, 1660-99-650-0577 - MUFF HALF - 1660996500577
  • 1660-99-650-0578 1660996500578, 1660-99-650-0578 - MUFF HALF - 1660996500578
  • 1660-99-650-0579 1660996500579, 1660-99-650-0579 - MUFF HALF - 1660996500579
  • 1660-99-650-0580 1660996500580, 1660-99-650-0580 - MUFF HALF - 1660996500580
  • 1660-99-650-0583 1660996500583, 1660-99-650-0583 - MUFF HALF - 1660996500583
  • 1660-99-650-0584 1660996500584, 1660-99-650-0584 - MUFF HALF - 1660996500584
  • 1660-99-650-0585 1660996500585, 1660-99-650-0585 - MUFF HALF - 1660996500585
  • 1660-99-650-0586 1660996500586, 1660-99-650-0586 - MUFF HALF - 1660996500586
  • 1660-99-650-0588 1660996500588, 1660-99-650-0588 - MUFF HALF - 1660996500588
  • 1660-99-650-0589 1660996500589, 1660-99-650-0589 - MUFF HALF - 1660996500589
  • 1660-99-650-0590 1660996500590, 1660-99-650-0590 - MUFF HALF - 1660996500590
  • 1660-99-650-0592 1660996500592, 1660-99-650-0592 - PIPE ASSEMBLY - 1660996500592
  • 1660-99-650-0594 1660996500594, 1660-99-650-0594 - PIPE ASSEMBLY,EJECT - 1660996500594
  • 1660-99-650-0596 1660996500596, 1660-99-650-0596 - PIPE ASSEMBLY,TURBI - 1660996500596
  • 1660-99-650-0612 1660996500612, 1660-99-650-0612 - ELBOW,SPECIAL - 1660996500612
  • 1660-99-650-0613 1660996500613, 1660-99-650-0613 - PIPE ASSEMBLY,LAGGE - 1660996500613
  • 1660-99-650-0615 1660996500615, 1660-99-650-0615 - PIPE ASSEMBLY,LAGGE - 1660996500615
  • 1660-99-650-0616 1660996500616, 1660-99-650-0616 - PIPE ASSEMBLY,LAGGE - 1660996500616
  • 1660-99-650-0617 1660996500617, 1660-99-650-0617 - PIPE ASSEMBLY,LAGGE - 1660996500617
  • 1660-99-650-0618 1660996500618, 1660-99-650-0618 - PIPE ASSEMBLY,LAGGE - 1660996500618
  • 1660-99-650-0619 1660996500619, 1660-99-650-0619 - PIPE ASSEMBLY,LAGGE - 1660996500619
  • 1660-99-650-0620 1660996500620, 1660-99-650-0620 - PIPE ASSEMBLY,LAGGE - 1660996500620
  • 1660-99-650-0623 1660996500623, 1660-99-650-0623 - FOOT SPRAY ASSEMBLY - 1660996500623
  • 1660-99-650-0628 1660996500628, 1660-99-650-0628 - COVER ASSEMBLY - 1660996500628
  • 1660-99-650-0629 1660996500629, 1660-99-650-0629 - MOULDING,BODY SPRAY - 1660996500629
  • 1660-99-650-0630 1660996500630, 1660-99-650-0630 - WELDED ASSEMBLY - 1660996500630
  • 1660-99-650-0632 1660996500632, 1660-99-650-0632 - ANGLE - 1660996500632
  • 1660-99-650-0634 1660996500634, 1660-99-650-0634 - PIPE ASSEMBLY - 1660996500634
  • 1660-99-650-0636 1660996500636, 1660-99-650-0636 - PIPE ASSEMBLY - 1660996500636
  • 1660-99-650-0644 1660996500644, 1660-99-650-0644 - PIPE ASSEMBLY - 1660996500644
REQUEST QUOTE for 1660-99-629-6686
*
*

*
*
*

 


 
Top